sensor_id;sensor_type;location;lat;lon;timestamp;temperature;humidity
20957;DHT22;10637;47.970;7.830;2023-12-07T00:01:25;3.60;99.90
20957;DHT22;10637;47.970;7.830;2023-12-07T00:06:27;3.60;99.90
20957;DHT22;10637;47.970;7.830;2023-12-07T00:11:28;3.40;99.90
20957;DHT22;10637;47.970;7.830;2023-12-07T00:16:30;3.70;99.90
20957;DHT22;10637;47.970;7.830;2023-12-07T00:21:33;3.70;99.90
20957;DHT22;10637;47.970;7.830;2023-12-07T00:26:35;3.60;99.90
20957;DHT22;10637;47.970;7.830;2023-12-07T00:31:36;3.60;99.90
20957;DHT22;10637;47.970;7.830;2023-12-07T00:36:39;3.60;99.90
20957;DHT22;10637;47.970;7.830;2023-12-07T00:41:42;3.60;99.90
20957;DHT22;10637;47.970;7.830;2023-12-07T00:46:44;3.60;99.90
20957;DHT22;10637;47.970;7.830;2023-12-07T00:51:46;3.60;99.90
20957;DHT22;10637;47.970;7.830;2023-12-07T00:56:47;3.40;99.90
20957;DHT22;10637;47.970;7.830;2023-12-07T01:01:50;3.40;99.90
20957;DHT22;10637;47.970;7.830;2023-12-07T01:06:52;3.30;99.90
20957;DHT22;10637;47.970;7.830;2023-12-07T01:11:54;3.20;99.90
20957;DHT22;10637;47.970;7.830;2023-12-07T01:16:56;3.10;99.90
20957;DHT22;10637;47.970;7.830;2023-12-07T01:21:58;2.90;99.90
20957;DHT22;10637;47.970;7.830;2023-12-07T01:26:59;3.00;99.90
20957;DHT22;10637;47.970;7.830;2023-12-07T01:32:01;3.00;99.90
20957;DHT22;10637;47.970;7.830;2023-12-07T01:37:03;3.00;99.90
20957;DHT22;10637;47.970;7.830;2023-12-07T01:42:05;3.00;99.90
20957;DHT22;10637;47.970;7.830;2023-12-07T01:47:07;2.60;99.90
20957;DHT22;10637;47.970;7.830;2023-12-07T01:52:10;2.70;99.90
20957;DHT22;10637;47.970;7.830;2023-12-07T01:57:12;2.40;99.90
20957;DHT22;10637;47.970;7.830;2023-12-07T02:02:14;2.50;99.90
20957;DHT22;10637;47.970;7.830;2023-12-07T02:07:17;2.50;99.90
20957;DHT22;10637;47.970;7.830;2023-12-07T02:12:19;2.50;99.90
20957;DHT22;10637;47.970;7.830;2023-12-07T02:17:28;2.50;99.90
20957;DHT22;10637;47.970;7.830;2023-12-07T02:22:42;2.40;99.90
20957;DHT22;10637;47.970;7.830;2023-12-07T02:27:45;2.00;99.90
20957;DHT22;10637;47.970;7.830;2023-12-07T02:32:50;2.10;99.90
20957;DHT22;10637;47.970;7.830;2023-12-07T02:37:53;2.00;99.90
20957;DHT22;10637;47.970;7.830;2023-12-07T02:42:56;2.00;99.90
20957;DHT22;10637;47.970;7.830;2023-12-07T02:47:59;2.00;99.90
20957;DHT22;10637;47.970;7.830;2023-12-07T02:53:01;2.00;99.90
20957;DHT22;10637;47.970;7.830;2023-12-07T02:58:04;2.10;99.90
20957;DHT22;10637;47.970;7.830;2023-12-07T03:03:05;2.00;99.90
20957;DHT22;10637;47.970;7.830;2023-12-07T03:08:07;1.80;99.90
20957;DHT22;10637;47.970;7.830;2023-12-07T03:13:09;1.80;99.90
20957;DHT22;10637;47.970;7.830;2023-12-07T03:18:11;1.70;99.90
20957;DHT22;10637;47.970;7.830;2023-12-07T03:23:13;1.80;99.90
20957;DHT22;10637;47.970;7.830;2023-12-07T03:28:15;1.70;99.90
20957;DHT22;10637;47.970;7.830;2023-12-07T03:33:17;1.70;99.90
20957;DHT22;10637;47.970;7.830;2023-12-07T03:38:19;1.60;99.90
20957;DHT22;10637;47.970;7.830;2023-12-07T03:43:21;1.60;99.90
20957;DHT22;10637;47.970;7.830;2023-12-07T03:48:23;1.60;99.90
20957;DHT22;10637;47.970;7.830;2023-12-07T03:53:24;1.40;99.90
20957;DHT22;10637;47.970;7.830;2023-12-07T03:58:26;1.40;99.90
20957;DHT22;10637;47.970;7.830;2023-12-07T04:03:28;1.30;99.90
20957;DHT22;10637;47.970;7.830;2023-12-07T04:08:30;1.30;99.90
20957;DHT22;10637;47.970;7.830;2023-12-07T04:13:32;1.10;99.90
20957;DHT22;10637;47.970;7.830;2023-12-07T04:18:33;0.80;99.90
20957;DHT22;10637;47.970;7.830;2023-12-07T04:23:35;0.70;99.90
20957;DHT22;10637;47.970;7.830;2023-12-07T04:28:37;0.80;99.90
20957;DHT22;10637;47.970;7.830;2023-12-07T04:33:39;0.80;99.90
20957;DHT22;10637;47.970;7.830;2023-12-07T04:38:41;0.80;99.90
20957;DHT22;10637;47.970;7.830;2023-12-07T04:43:42;0.90;99.90
20957;DHT22;10637;47.970;7.830;2023-12-07T04:48:44;1.10;99.90
20957;DHT22;10637;47.970;7.830;2023-12-07T04:53:47;1.00;99.90
20957;DHT22;10637;47.970;7.830;2023-12-07T04:58:48;1.00;99.90
20957;DHT22;10637;47.970;7.830;2023-12-07T05:03:50;0.80;99.90
20957;DHT22;10637;47.970;7.830;2023-12-07T05:08:52;0.80;99.90
20957;DHT22;10637;47.970;7.830;2023-12-07T05:13:54;0.90;99.90
20957;DHT22;10637;47.970;7.830;2023-12-07T05:18:55;0.90;99.90
20957;DHT22;10637;47.970;7.830;2023-12-07T05:23:57;0.80;99.90
20957;DHT22;10637;47.970;7.830;2023-12-07T05:28:59;0.80;99.90
20957;DHT22;10637;47.970;7.830;2023-12-07T05:34:01;0.80;99.90
20957;DHT22;10637;47.970;7.830;2023-12-07T05:39:03;0.80;99.90
20957;DHT22;10637;47.970;7.830;2023-12-07T05:44:08;0.80;99.90
20957;DHT22;10637;47.970;7.830;2023-12-07T05:49:10;0.90;99.90
20957;DHT22;10637;47.970;7.830;2023-12-07T05:54:12;1.00;99.90
20957;DHT22;10637;47.970;7.830;2023-12-07T05:59:14;0.80;99.90
20957;DHT22;10637;47.970;7.830;2023-12-07T06:04:15;0.70;99.90
20957;DHT22;10637;47.970;7.830;2023-12-07T06:09:18;0.50;99.90
20957;DHT22;10637;47.970;7.830;2023-12-07T06:14:20;0.80;99.90
20957;DHT22;10637;47.970;7.830;2023-12-07T06:19:23;0.90;99.90
20957;DHT22;10637;47.970;7.830;2023-12-07T06:24:25;0.90;99.90
20957;DHT22;10637;47.970;7.830;2023-12-07T06:29:26;0.60;99.90
20957;DHT22;10637;47.970;7.830;2023-12-07T06:34:30;0.70;99.90
20957;DHT22;10637;47.970;7.830;2023-12-07T06:39:32;0.80;99.90
20957;DHT22;10637;47.970;7.830;2023-12-07T06:44:34;0.80;99.90
20957;DHT22;10637;47.970;7.830;2023-12-07T06:49:36;0.80;99.90
20957;DHT22;10637;47.970;7.830;2023-12-07T06:54:52;0.80;99.90
20957;DHT22;10637;47.970;7.830;2023-12-07T06:59:54;0.70;99.90
20957;DHT22;10637;47.970;7.830;2023-12-07T07:04:56;0.70;99.90
20957;DHT22;10637;47.970;7.830;2023-12-07T07:09:58;0.80;99.90
20957;DHT22;10637;47.970;7.830;2023-12-07T07:15:01;0.70;99.90
20957;DHT22;10637;47.970;7.830;2023-12-07T07:20:03;0.70;99.90
20957;DHT22;10637;47.970;7.830;2023-12-07T07:25:05;0.80;99.90
20957;DHT22;10637;47.970;7.830;2023-12-07T07:30:07;0.80;99.90
20957;DHT22;10637;47.970;7.830;2023-12-07T07:35:11;0.90;99.90
20957;DHT22;10637;47.970;7.830;2023-12-07T07:40:13;0.90;99.90
20957;DHT22;10637;47.970;7.830;2023-12-07T07:45:16;0.90;99.90
20957;DHT22;10637;47.970;7.830;2023-12-07T07:50:18;0.80;99.90
20957;DHT22;10637;47.970;7.830;2023-12-07T07:55:19;0.90;99.90
20957;DHT22;10637;47.970;7.830;2023-12-07T08:00:21;0.90;99.90
20957;DHT22;10637;47.970;7.830;2023-12-07T08:05:23;1.10;99.90
20957;DHT22;10637;47.970;7.830;2023-12-07T08:10:25;1.30;99.90
20957;DHT22;10637;47.970;7.830;2023-12-07T08:15:27;1.30;99.90
20957;DHT22;10637;47.970;7.830;2023-12-07T08:20:28;1.40;99.90
20957;DHT22;10637;47.970;7.830;2023-12-07T08:25:30;1.40;99.90
20957;DHT22;10637;47.970;7.830;2023-12-07T08:30:33;1.30;99.90
20957;DHT22;10637;47.970;7.830;2023-12-07T08:35:35;1.40;99.90
20957;DHT22;10637;47.970;7.830;2023-12-07T08:40:37;1.60;99.90
20957;DHT22;10637;47.970;7.830;2023-12-07T08:45:39;1.80;99.90
20957;DHT22;10637;47.970;7.830;2023-12-07T08:50:41;2.10;99.90
20957;DHT22;10637;47.970;7.830;2023-12-07T08:55:43;2.50;99.90
20957;DHT22;10637;47.970;7.830;2023-12-07T09:00:45;2.80;99.90
20957;DHT22;10637;47.970;7.830;2023-12-07T09:05:46;2.80;99.90
20957;DHT22;10637;47.970;7.830;2023-12-07T09:10:48;2.90;99.90
20957;DHT22;10637;47.970;7.830;2023-12-07T09:15:52;3.00;99.90
20957;DHT22;10637;47.970;7.830;2023-12-07T09:20:55;3.00;99.90
20957;DHT22;10637;47.970;7.830;2023-12-07T09:25:57;3.00;99.90
20957;DHT22;10637;47.970;7.830;2023-12-07T09:30:59;3.20;99.90
20957;DHT22;10637;47.970;7.830;2023-12-07T09:36:00;3.20;99.90
20957;DHT22;10637;47.970;7.830;2023-12-07T09:41:05;3.30;99.90
20957;DHT22;10637;47.970;7.830;2023-12-07T09:46:07;4.40;99.90
20957;DHT22;10637;47.970;7.830;2023-12-07T09:51:09;6.00;99.90
20957;DHT22;10637;47.970;7.830;2023-12-07T09:56:12;9.60;99.90
20957;DHT22;10637;47.970;7.830;2023-12-07T10:01:14;11.70;99.90
20957;DHT22;10637;47.970;7.830;2023-12-07T10:06:16;13.30;99.90
20957;DHT22;10637;47.970;7.830;2023-12-07T10:11:18;14.70;99.90
20957;DHT22;10637;47.970;7.830;2023-12-07T10:16:20;14.70;99.90
20957;DHT22;10637;47.970;7.830;2023-12-07T10:21:49;12.50;99.90
20957;DHT22;10637;47.970;7.830;2023-12-07T10:26:54;10.20;99.90
20957;DHT22;10637;47.970;7.830;2023-12-07T10:32:05;11.40;99.90
20957;DHT22;10637;47.970;7.830;2023-12-07T10:37:07;12.60;99.90
20957;DHT22;10637;47.970;7.830;2023-12-07T10:42:10;10.90;99.90
20957;DHT22;10637;47.970;7.830;2023-12-07T10:47:16;10.90;99.90
20957;DHT22;10637;47.970;7.830;2023-12-07T10:52:22;10.90;99.90
20957;DHT22;10637;47.970;7.830;2023-12-07T10:57:26;11.90;99.90
20957;DHT22;10637;47.970;7.830;2023-12-07T11:02:32;14.10;99.90
20957;DHT22;10637;47.970;7.830;2023-12-07T11:07:48;12.80;99.90
20957;DHT22;10637;47.970;7.830;2023-12-07T11:13:05;11.00;99.90
20957;DHT22;10637;47.970;7.830;2023-12-07T11:18:14;10.40;99.90
20957;DHT22;10637;47.970;7.830;2023-12-07T11:23:17;13.30;99.90
20957;DHT22;10637;47.970;7.830;2023-12-07T11:28:35;13.60;99.90
20957;DHT22;10637;47.970;7.830;2023-12-07T11:33:41;15.50;99.90
20957;DHT22;10637;47.970;7.830;2023-12-07T11:39:15;16.20;99.90
20957;DHT22;10637;47.970;7.830;2023-12-07T11:44:33;17.40;99.90
20957;DHT22;10637;47.970;7.830;2023-12-07T11:49:36;17.90;99.90
20957;DHT22;10637;47.970;7.830;2023-12-07T11:54:38;16.90;99.90
20957;DHT22;10637;47.970;7.830;2023-12-07T11:59:40;16.80;99.90
20957;DHT22;10637;47.970;7.830;2023-12-07T12:04:43;16.40;99.90
20957;DHT22;10637;47.970;7.830;2023-12-07T12:09:45;17.10;99.90
20957;DHT22;10637;47.970;7.830;2023-12-07T12:14:47;18.60;99.50
20957;DHT22;10637;47.970;7.830;2023-12-07T12:19:49;18.90;98.30
20957;DHT22;10637;47.970;7.830;2023-12-07T12:24:56;16.20;99.90
20957;DHT22;10637;47.970;7.830;2023-12-07T12:29:58;12.80;99.90
20957;DHT22;10637;47.970;7.830;2023-12-07T12:35:00;10.00;99.90
20957;DHT22;10637;47.970;7.830;2023-12-07T12:40:06;7.80;99.90
20957;DHT22;10637;47.970;7.830;2023-12-07T12:45:08;5.40;99.90
20957;DHT22;10637;47.970;7.830;2023-12-07T12:55:33;3.90;99.90
20957;DHT22;10637;47.970;7.830;2023-12-07T13:00:38;3.20;99.90
20957;DHT22;10637;47.970;7.830;2023-12-07T13:05:40;3.60;99.90
20957;DHT22;10637;47.970;7.830;2023-12-07T13:10:42;3.60;99.90
20957;DHT22;10637;47.970;7.830;2023-12-07T13:15:44;3.40;99.90
20957;DHT22;10637;47.970;7.830;2023-12-07T13:20:45;3.30;99.90
20957;DHT22;10637;47.970;7.830;2023-12-07T13:25:56;3.40;99.90
20957;DHT22;10637;47.970;7.830;2023-12-07T13:30:58;3.70;99.90
20957;DHT22;10637;47.970;7.830;2023-12-07T13:36:00;4.30;99.90
20957;DHT22;10637;47.970;7.830;2023-12-07T13:41:07;4.50;99.90
20957;DHT22;10637;47.970;7.830;2023-12-07T13:46:09;4.70;99.90
20957;DHT22;10637;47.970;7.830;2023-12-07T13:51:12;5.00;99.90
20957;DHT22;10637;47.970;7.830;2023-12-07T13:56:14;4.90;99.90
20957;DHT22;10637;47.970;7.830;2023-12-07T14:01:17;4.80;99.90
20957;DHT22;10637;47.970;7.830;2023-12-07T14:06:23;4.60;99.90
20957;DHT22;10637;47.970;7.830;2023-12-07T14:11:30;4.70;99.90
20957;DHT22;10637;47.970;7.830;2023-12-07T14:16:32;4.50;99.90
20957;DHT22;10637;47.970;7.830;2023-12-07T14:21:54;4.10;99.90
20957;DHT22;10637;47.970;7.830;2023-12-07T14:26:57;3.90;99.90
20957;DHT22;10637;47.970;7.830;2023-12-07T14:32:00;4.00;99.90
20957;DHT22;10637;47.970;7.830;2023-12-07T14:37:05;4.10;99.90
20957;DHT22;10637;47.970;7.830;2023-12-07T14:42:08;4.30;99.90
20957;DHT22;10637;47.970;7.830;2023-12-07T14:47:10;4.20;99.90
20957;DHT22;10637;47.970;7.830;2023-12-07T14:52:12;4.10;99.90
20957;DHT22;10637;47.970;7.830;2023-12-07T14:57:14;4.20;99.90
20957;DHT22;10637;47.970;7.830;2023-12-07T15:02:15;4.20;99.90
20957;DHT22;10637;47.970;7.830;2023-12-07T15:07:17;4.40;99.90
20957;DHT22;10637;47.970;7.830;2023-12-07T15:12:19;4.10;99.90
20957;DHT22;10637;47.970;7.830;2023-12-07T15:17:21;3.80;99.90
20957;DHT22;10637;47.970;7.830;2023-12-07T15:22:23;3.80;99.90
20957;DHT22;10637;47.970;7.830;2023-12-07T15:27:25;4.00;99.90
20957;DHT22;10637;47.970;7.830;2023-12-07T15:32:28;3.60;99.90
20957;DHT22;10637;47.970;7.830;2023-12-07T15:37:30;3.50;99.90
20957;DHT22;10637;47.970;7.830;2023-12-07T15:42:32;3.60;99.90
20957;DHT22;10637;47.970;7.830;2023-12-07T15:47:34;3.40;99.90
20957;DHT22;10637;47.970;7.830;2023-12-07T15:52:36;3.50;99.90
20957;DHT22;10637;47.970;7.830;2023-12-07T15:57:38;3.40;99.90
20957;DHT22;10637;47.970;7.830;2023-12-07T16:02:40;3.20;99.90
20957;DHT22;10637;47.970;7.830;2023-12-07T16:07:42;3.10;99.90
20957;DHT22;10637;47.970;7.830;2023-12-07T16:12:44;3.00;99.90
20957;DHT22;10637;47.970;7.830;2023-12-07T16:17:45;2.70;99.90
20957;DHT22;10637;47.970;7.830;2023-12-07T16:22:48;2.80;99.90
20957;DHT22;10637;47.970;7.830;2023-12-07T16:27:50;2.80;99.90
20957;DHT22;10637;47.970;7.830;2023-12-07T16:32:52;2.70;99.90
20957;DHT22;10637;47.970;7.830;2023-12-07T16:37:54;2.60;99.90
20957;DHT22;10637;47.970;7.830;2023-12-07T16:42:56;2.40;99.90
20957;DHT22;10637;47.970;7.830;2023-12-07T16:47:58;2.30;99.90
20957;DHT22;10637;47.970;7.830;2023-12-07T16:53:00;2.00;99.90
20957;DHT22;10637;47.970;7.830;2023-12-07T16:58:01;1.90;99.90
20957;DHT22;10637;47.970;7.830;2023-12-07T17:03:03;2.00;99.90
20957;DHT22;10637;47.970;7.830;2023-12-07T17:08:07;1.70;99.90
20957;DHT22;10637;47.970;7.830;2023-12-07T17:13:09;1.70;99.90
20957;DHT22;10637;47.970;7.830;2023-12-07T17:18:10;1.60;99.90
20957;DHT22;10637;47.970;7.830;2023-12-07T17:23:15;1.70;99.90
20957;DHT22;10637;47.970;7.830;2023-12-07T17:28:17;1.60;99.90
20957;DHT22;10637;47.970;7.830;2023-12-07T17:33:19;1.80;99.90
20957;DHT22;10637;47.970;7.830;2023-12-07T17:38:21;1.80;99.90
20957;DHT22;10637;47.970;7.830;2023-12-07T17:43:23;1.80;99.90
20957;DHT22;10637;47.970;7.830;2023-12-07T17:48:25;1.80;99.90
20957;DHT22;10637;47.970;7.830;2023-12-07T17:53:27;1.90;99.90
20957;DHT22;10637;47.970;7.830;2023-12-07T17:58:29;1.90;99.90
20957;DHT22;10637;47.970;7.830;2023-12-07T18:03:31;1.90;99.90
20957;DHT22;10637;47.970;7.830;2023-12-07T18:08:33;1.90;99.90
20957;DHT22;10637;47.970;7.830;2023-12-07T18:13:34;2.00;99.90
20957;DHT22;10637;47.970;7.830;2023-12-07T18:18:36;2.10;99.90
20957;DHT22;10637;47.970;7.830;2023-12-07T18:23:38;2.00;99.90
20957;DHT22;10637;47.970;7.830;2023-12-07T18:28:41;2.00;99.90
20957;DHT22;10637;47.970;7.830;2023-12-07T18:33:42;2.00;99.90
20957;DHT22;10637;47.970;7.830;2023-12-07T18:38:45;1.70;99.90
20957;DHT22;10637;47.970;7.830;2023-12-07T18:43:47;1.50;99.90
20957;DHT22;10637;47.970;7.830;2023-12-07T18:48:49;1.60;99.90
20957;DHT22;10637;47.970;7.830;2023-12-07T18:53:51;1.70;99.90
20957;DHT22;10637;47.970;7.830;2023-12-07T18:58:53;2.00;99.90
20957;DHT22;10637;47.970;7.830;2023-12-07T19:03:55;2.10;99.90
20957;DHT22;10637;47.970;7.830;2023-12-07T19:08:57;2.10;99.90
20957;DHT22;10637;47.970;7.830;2023-12-07T19:13:58;2.30;99.90
20957;DHT22;10637;47.970;7.830;2023-12-07T19:19:00;2.50;99.90
20957;DHT22;10637;47.970;7.830;2023-12-07T19:24:02;2.70;99.90
20957;DHT22;10637;47.970;7.830;2023-12-07T19:29:05;2.70;99.90
20957;DHT22;10637;47.970;7.830;2023-12-07T19:34:06;2.80;99.90
20957;DHT22;10637;47.970;7.830;2023-12-07T19:39:13;3.00;99.90
20957;DHT22;10637;47.970;7.830;2023-12-07T19:44:17;3.00;99.90
20957;DHT22;10637;47.970;7.830;2023-12-07T19:49:19;3.10;99.90
20957;DHT22;10637;47.970;7.830;2023-12-07T19:54:21;2.90;99.90
20957;DHT22;10637;47.970;7.830;2023-12-07T19:59:26;2.90;99.90
20957;DHT22;10637;47.970;7.830;2023-12-07T20:04:28;3.10;99.90
20957;DHT22;10637;47.970;7.830;2023-12-07T20:09:30;3.20;99.90
20957;DHT22;10637;47.970;7.830;2023-12-07T20:14:32;2.90;99.90
20957;DHT22;10637;47.970;7.830;2023-12-07T20:19:34;3.00;99.90
20957;DHT22;10637;47.970;7.830;2023-12-07T20:24:37;3.00;99.90
20957;DHT22;10637;47.970;7.830;2023-12-07T20:29:40;3.00;99.90
20957;DHT22;10637;47.970;7.830;2023-12-07T20:34:42;3.20;99.90
20957;DHT22;10637;47.970;7.830;2023-12-07T20:39:46;3.10;99.90
20957;DHT22;10637;47.970;7.830;2023-12-07T20:44:48;3.20;99.90
20957;DHT22;10637;47.970;7.830;2023-12-07T20:49:50;3.10;99.90
20957;DHT22;10637;47.970;7.830;2023-12-07T20:54:53;3.20;99.90
20957;DHT22;10637;47.970;7.830;2023-12-07T20:59:55;3.40;99.90
20957;DHT22;10637;47.970;7.830;2023-12-07T21:04:57;3.50;99.90
20957;DHT22;10637;47.970;7.830;2023-12-07T21:09:58;3.60;99.90
20957;DHT22;10637;47.970;7.830;2023-12-07T21:15:00;3.70;99.90
20957;DHT22;10637;47.970;7.830;2023-12-07T21:20:04;3.70;99.90
20957;DHT22;10637;47.970;7.830;2023-12-07T21:25:06;3.60;99.90
20957;DHT22;10637;47.970;7.830;2023-12-07T21:30:09;3.30;99.90
20957;DHT22;10637;47.970;7.830;2023-12-07T21:35:11;3.40;99.90
20957;DHT22;10637;47.970;7.830;2023-12-07T21:40:13;3.40;99.90
20957;DHT22;10637;47.970;7.830;2023-12-07T21:45:15;3.70;99.90
20957;DHT22;10637;47.970;7.830;2023-12-07T21:50:17;3.60;99.90
20957;DHT22;10637;47.970;7.830;2023-12-07T21:55:18;3.60;99.90
20957;DHT22;10637;47.970;7.830;2023-12-07T22:00:20;3.70;99.90
20957;DHT22;10637;47.970;7.830;2023-12-07T22:05:22;3.80;99.90
20957;DHT22;10637;47.970;7.830;2023-12-07T22:10:24;3.80;99.90
20957;DHT22;10637;47.970;7.830;2023-12-07T22:15:30;3.80;99.90
20957;DHT22;10637;47.970;7.830;2023-12-07T22:20:32;3.80;99.90
20957;DHT22;10637;47.970;7.830;2023-12-07T22:25:34;3.90;99.90
20957;DHT22;10637;47.970;7.830;2023-12-07T22:30:35;3.90;99.90
20957;DHT22;10637;47.970;7.830;2023-12-07T22:35:37;3.80;99.90
20957;DHT22;10637;47.970;7.830;2023-12-07T22:40:39;3.50;99.90
20957;DHT22;10637;47.970;7.830;2023-12-07T22:45:41;3.60;99.90
20957;DHT22;10637;47.970;7.830;2023-12-07T22:50:42;3.60;99.90
20957;DHT22;10637;47.970;7.830;2023-12-07T22:55:44;3.80;99.90
20957;DHT22;10637;47.970;7.830;2023-12-07T23:00:46;3.90;99.90
20957;DHT22;10637;47.970;7.830;2023-12-07T23:05:48;4.00;99.90
20957;DHT22;10637;47.970;7.830;2023-12-07T23:10:50;3.90;99.90
20957;DHT22;10637;47.970;7.830;2023-12-07T23:15:51;4.00;99.90
20957;DHT22;10637;47.970;7.830;2023-12-07T23:20:53;4.00;99.90
20957;DHT22;10637;47.970;7.830;2023-12-07T23:25:55;4.00;99.90
20957;DHT22;10637;47.970;7.830;2023-12-07T23:30:57;4.00;99.90
20957;DHT22;10637;47.970;7.830;2023-12-07T23:35:59;3.70;99.90
20957;DHT22;10637;47.970;7.830;2023-12-07T23:41:01;3.70;99.90
20957;DHT22;10637;47.970;7.830;2023-12-07T23:46:06;3.50;99.90
20957;DHT22;10637;47.970;7.830;2023-12-07T23:51:08;3.70;99.90
20957;DHT22;10637;47.970;7.830;2023-12-07T23:56:11;3.80;99.90
